sensor_id;sensor_type;location;lat;lon;timestamp;P1;durP1;ratioP1;P2;durP2;ratioP2
7017;SDS011;3549;42.162;24.726;2022-07-29T00:06:40;6.13;;;5.10;;
7017;SDS011;3549;42.162;24.726;2022-07-29T00:09:06;5.20;;;4.70;;
7017;SDS011;3549;42.162;24.726;2022-07-29T00:14:49;9.03;;;5.20;;
7017;SDS011;3549;42.162;24.726;2022-07-29T00:20:40;8.83;;;5.00;;
7017;SDS011;3549;42.162;24.726;2022-07-29T00:23:06;8.87;;;5.17;;
7017;SDS011;3549;42.162;24.726;2022-07-29T00:25:38;8.37;;;5.17;;
7017;SDS011;3549;42.162;24.726;2022-07-29T00:28:03;6.73;;;5.00;;
7017;SDS011;3549;42.162;24.726;2022-07-29T00:34:00;6.53;;;5.23;;
7017;SDS011;3549;42.162;24.726;2022-07-29T00:40:25;9.17;;;5.33;;
7017;SDS011;3549;42.162;24.726;2022-07-29T01:06:42;8.83;;;5.80;;
7017;SDS011;3549;42.162;24.726;2022-07-29T01:09:07;8.47;;;6.10;;
7017;SDS011;3549;42.162;24.726;2022-07-29T01:11:36;9.37;;;6.07;;
7017;SDS011;3549;42.162;24.726;2022-07-29T01:14:02;9.60;;;6.10;;
7017;SDS011;3549;42.162;24.726;2022-07-29T01:16:31;7.23;;;5.90;;
7017;SDS011;3549;42.162;24.726;2022-07-29T01:19:06;10.03;;;6.33;;
7017;SDS011;3549;42.162;24.726;2022-07-29T01:21:46;6.77;;;5.97;;
7017;SDS011;3549;42.162;24.726;2022-07-29T01:27:11;11.03;;;7.10;;
7017;SDS011;3549;42.162;24.726;2022-07-29T01:29:51;8.17;;;6.83;;
7017;SDS011;3549;42.162;24.726;2022-07-29T01:32:26;7.37;;;5.70;;
7017;SDS011;3549;42.162;24.726;2022-07-29T01:34:54;10.37;;;6.73;;
7017;SDS011;3549;42.162;24.726;2022-07-29T01:40:34;9.07;;;6.50;;
7017;SDS011;3549;42.162;24.726;2022-07-29T01:46:04;9.00;;;6.47;;
7017;SDS011;3549;42.162;24.726;2022-07-29T01:48:52;11.50;;;9.00;;
7017;SDS011;3549;42.162;24.726;2022-07-29T01:51:27;10.03;;;7.07;;
7017;SDS011;3549;42.162;24.726;2022-07-29T01:56:33;11.43;;;6.90;;
7017;SDS011;3549;42.162;24.726;2022-07-29T01:59:01;10.27;;;7.10;;
7017;SDS011;3549;42.162;24.726;2022-07-29T02:01:29;9.53;;;6.93;;
7017;SDS011;3549;42.162;24.726;2022-07-29T02:03:57;10.27;;;7.37;;
7017;SDS011;3549;42.162;24.726;2022-07-29T02:06:27;13.07;;;7.20;;
7017;SDS011;3549;42.162;24.726;2022-07-29T02:08:56;11.23;;;7.57;;
7017;SDS011;3549;42.162;24.726;2022-07-29T02:11:23;12.17;;;7.63;;
7017;SDS011;3549;42.162;24.726;2022-07-29T02:13:49;10.63;;;7.37;;
7017;SDS011;3549;42.162;24.726;2022-07-29T02:16:17;9.80;;;7.50;;
7017;SDS011;3549;42.162;24.726;2022-07-29T02:18:45;12.53;;;7.43;;
7017;SDS011;3549;42.162;24.726;2022-07-29T02:21:15;9.83;;;7.43;;
7017;SDS011;3549;42.162;24.726;2022-07-29T02:23:47;9.17;;;7.27;;
7017;SDS011;3549;42.162;24.726;2022-07-29T02:26:14;10.17;;;6.97;;
7017;SDS011;3549;42.162;24.726;2022-07-29T02:28:42;9.00;;;6.97;;
7017;SDS011;3549;42.162;24.726;2022-07-29T02:31:07;10.00;;;6.90;;
7017;SDS011;3549;42.162;24.726;2022-07-29T02:33:34;10.00;;;7.00;;
7017;SDS011;3549;42.162;24.726;2022-07-29T02:36:00;8.80;;;6.70;;
7017;SDS011;3549;42.162;24.726;2022-07-29T02:38:27;9.90;;;6.70;;
7017;SDS011;3549;42.162;24.726;2022-07-29T02:41:13;9.40;;;6.90;;
7017;SDS011;3549;42.162;24.726;2022-07-29T02:43:41;10.67;;;7.77;;
7017;SDS011;3549;42.162;24.726;2022-07-29T02:46:11;10.60;;;7.20;;
7017;SDS011;3549;42.162;24.726;2022-07-29T02:48:43;10.17;;;6.83;;
7017;SDS011;3549;42.162;24.726;2022-07-29T02:51:18;11.53;;;6.90;;
7017;SDS011;3549;42.162;24.726;2022-07-29T02:53:49;8.80;;;6.97;;
7017;SDS011;3549;42.162;24.726;2022-07-29T02:56:18;10.20;;;6.90;;
7017;SDS011;3549;42.162;24.726;2022-07-29T02:58:53;8.60;;;7.17;;
7017;SDS011;3549;42.162;24.726;2022-07-29T03:01:23;10.17;;;7.27;;
7017;SDS011;3549;42.162;24.726;2022-07-29T03:03:51;9.77;;;7.50;;
7017;SDS011;3549;42.162;24.726;2022-07-29T03:06:19;9.20;;;7.40;;
7017;SDS011;3549;42.162;24.726;2022-07-29T03:08:46;9.17;;;7.50;;
7017;SDS011;3549;42.162;24.726;2022-07-29T03:11:12;12.67;;;7.40;;
7017;SDS011;3549;42.162;24.726;2022-07-29T03:13:39;8.20;;;6.83;;
7017;SDS011;3549;42.162;24.726;2022-07-29T03:16:05;11.23;;;7.37;;
7017;SDS011;3549;42.162;24.726;2022-07-29T03:18:33;10.90;;;7.10;;
7017;SDS011;3549;42.162;24.726;2022-07-29T03:20:59;9.23;;;7.27;;
7017;SDS011;3549;42.162;24.726;2022-07-29T03:23:24;12.27;;;7.77;;
7017;SDS011;3549;42.162;24.726;2022-07-29T03:25:53;12.67;;;7.77;;
7017;SDS011;3549;42.162;24.726;2022-07-29T03:28:19;12.40;;;7.60;;
7017;SDS011;3549;42.162;24.726;2022-07-29T03:30:45;12.50;;;7.90;;
7017;SDS011;3549;42.162;24.726;2022-07-29T03:33:11;10.27;;;8.10;;
7017;SDS011;3549;42.162;24.726;2022-07-29T03:35:36;14.93;;;8.70;;
7017;SDS011;3549;42.162;24.726;2022-07-29T03:38:02;13.27;;;8.80;;
7017;SDS011;3549;42.162;24.726;2022-07-29T03:40:30;12.40;;;9.03;;
7017;SDS011;3549;42.162;24.726;2022-07-29T03:43:05;12.57;;;8.83;;
7017;SDS011;3549;42.162;24.726;2022-07-29T03:45:34;13.60;;;9.40;;
7017;SDS011;3549;42.162;24.726;2022-07-29T03:48:04;16.47;;;9.97;;
7017;SDS011;3549;42.162;24.726;2022-07-29T03:50:32;16.03;;;10.27;;
7017;SDS011;3549;42.162;24.726;2022-07-29T03:52:58;19.90;;;9.67;;
7017;SDS011;3549;42.162;24.726;2022-07-29T03:55:24;16.30;;;10.00;;
7017;SDS011;3549;42.162;24.726;2022-07-29T03:57:51;19.00;;;10.10;;
7017;SDS011;3549;42.162;24.726;2022-07-29T04:00:17;16.10;;;10.27;;
7017;SDS011;3549;42.162;24.726;2022-07-29T04:02:44;13.57;;;10.00;;
7017;SDS011;3549;42.162;24.726;2022-07-29T04:05:13;17.17;;;10.23;;
7017;SDS011;3549;42.162;24.726;2022-07-29T04:07:39;17.87;;;10.80;;
7017;SDS011;3549;42.162;24.726;2022-07-29T04:10:14;15.23;;;10.13;;
7017;SDS011;3549;42.162;24.726;2022-07-29T04:12:41;15.00;;;10.00;;
7017;SDS011;3549;42.162;24.726;2022-07-29T04:15:07;16.47;;;10.07;;
7017;SDS011;3549;42.162;24.726;2022-07-29T04:17:33;15.10;;;9.87;;
7017;SDS011;3549;42.162;24.726;2022-07-29T04:19:59;14.07;;;9.63;;
7017;SDS011;3549;42.162;24.726;2022-07-29T04:22:24;16.50;;;9.93;;
7017;SDS011;3549;42.162;24.726;2022-07-29T04:24:50;15.90;;;10.13;;
7017;SDS011;3549;42.162;24.726;2022-07-29T04:27:15;16.17;;;9.97;;
7017;SDS011;3549;42.162;24.726;2022-07-29T04:29:40;16.20;;;10.07;;
7017;SDS011;3549;42.162;24.726;2022-07-29T04:32:06;14.43;;;9.80;;
7017;SDS011;3549;42.162;24.726;2022-07-29T04:34:31;13.53;;;10.37;;
7017;SDS011;3549;42.162;24.726;2022-07-29T04:36:57;17.57;;;11.50;;
7017;SDS011;3549;42.162;24.726;2022-07-29T04:39:22;14.93;;;10.57;;
7017;SDS011;3549;42.162;24.726;2022-07-29T04:41:48;16.20;;;10.60;;
7017;SDS011;3549;42.162;24.726;2022-07-29T04:44:15;15.60;;;10.27;;
7017;SDS011;3549;42.162;24.726;2022-07-29T04:46:40;15.63;;;10.50;;
7017;SDS011;3549;42.162;24.726;2022-07-29T04:49:06;15.53;;;10.33;;
7017;SDS011;3549;42.162;24.726;2022-07-29T04:51:31;14.67;;;10.93;;
7017;SDS011;3549;42.162;24.726;2022-07-29T04:53:57;15.47;;;10.77;;
7017;SDS011;3549;42.162;24.726;2022-07-29T04:56:22;17.43;;;10.03;;
7017;SDS011;3549;42.162;24.726;2022-07-29T04:58:48;12.00;;;8.93;;
7017;SDS011;3549;42.162;24.726;2022-07-29T05:01:13;13.90;;;9.80;;
7017;SDS011;3549;42.162;24.726;2022-07-29T05:03:39;13.20;;;9.57;;
7017;SDS011;3549;42.162;24.726;2022-07-29T05:06:05;15.43;;;9.43;;
7017;SDS011;3549;42.162;24.726;2022-07-29T05:08:30;14.37;;;10.00;;
7017;SDS011;3549;42.162;24.726;2022-07-29T05:10:55;14.53;;;9.53;;
7017;SDS011;3549;42.162;24.726;2022-07-29T05:13:21;14.70;;;9.23;;
7017;SDS011;3549;42.162;24.726;2022-07-29T05:15:46;12.20;;;9.50;;
7017;SDS011;3549;42.162;24.726;2022-07-29T05:18:12;11.43;;;8.87;;
7017;SDS011;3549;42.162;24.726;2022-07-29T05:20:37;9.70;;;8.07;;
7017;SDS011;3549;42.162;24.726;2022-07-29T05:23:03;11.90;;;8.50;;
7017;SDS011;3549;42.162;24.726;2022-07-29T05:25:29;12.33;;;9.07;;
7017;SDS011;3549;42.162;24.726;2022-07-29T05:27:55;11.30;;;8.83;;
7017;SDS011;3549;42.162;24.726;2022-07-29T05:30:21;12.20;;;8.90;;
7017;SDS011;3549;42.162;24.726;2022-07-29T05:32:46;11.40;;;8.60;;
7017;SDS011;3549;42.162;24.726;2022-07-29T05:35:12;11.53;;;8.43;;
7017;SDS011;3549;42.162;24.726;2022-07-29T05:37:39;11.80;;;8.10;;
7017;SDS011;3549;42.162;24.726;2022-07-29T05:40:04;9.83;;;8.27;;
7017;SDS011;3549;42.162;24.726;2022-07-29T05:42:30;12.10;;;8.60;;
7017;SDS011;3549;42.162;24.726;2022-07-29T05:44:56;15.07;;;11.70;;
7017;SDS011;3549;42.162;24.726;2022-07-29T05:47:21;14.03;;;8.57;;
7017;SDS011;3549;42.162;24.726;2022-07-29T05:49:48;14.57;;;8.63;;
7017;SDS011;3549;42.162;24.726;2022-07-29T05:52:13;10.97;;;8.53;;
7017;SDS011;3549;42.162;24.726;2022-07-29T05:54:40;11.63;;;8.10;;
7017;SDS011;3549;42.162;24.726;2022-07-29T05:57:05;11.43;;;8.63;;
7017;SDS011;3549;42.162;24.726;2022-07-29T05:59:34;13.70;;;8.93;;
7017;SDS011;3549;42.162;24.726;2022-07-29T06:02:00;13.60;;;9.93;;
7017;SDS011;3549;42.162;24.726;2022-07-29T06:04:26;11.00;;;9.40;;
7017;SDS011;3549;42.162;24.726;2022-07-29T06:06:51;12.13;;;9.30;;
7017;SDS011;3549;42.162;24.726;2022-07-29T06:09:17;13.40;;;10.07;;
7017;SDS011;3549;42.162;24.726;2022-07-29T06:11:42;12.73;;;9.67;;
7017;SDS011;3549;42.162;24.726;2022-07-29T06:14:08;11.83;;;9.90;;
7017;SDS011;3549;42.162;24.726;2022-07-29T06:16:33;13.03;;;10.40;;
7017;SDS011;3549;42.162;24.726;2022-07-29T06:18:59;14.90;;;10.27;;
7017;SDS011;3549;42.162;24.726;2022-07-29T06:21:24;14.30;;;10.93;;
7017;SDS011;3549;42.162;24.726;2022-07-29T06:23:50;13.87;;;9.70;;
7017;SDS011;3549;42.162;24.726;2022-07-29T06:26:15;11.10;;;9.80;;
7017;SDS011;3549;42.162;24.726;2022-07-29T06:28:41;11.50;;;9.20;;
7017;SDS011;3549;42.162;24.726;2022-07-29T06:31:06;10.90;;;9.60;;
7017;SDS011;3549;42.162;24.726;2022-07-29T06:33:32;13.05;;;9.20;;
7017;SDS011;3549;42.162;24.726;2022-07-29T06:35:58;12.90;;;9.93;;
7017;SDS011;3549;42.162;24.726;2022-07-29T06:38:25;14.85;;;9.15;;
7017;SDS011;3549;42.162;24.726;2022-07-29T06:40:52;11.63;;;9.32;;
7017;SDS011;3549;42.162;24.726;2022-07-29T06:43:37;11.02;;;9.02;;
7017;SDS011;3549;42.162;24.726;2022-07-29T06:46:07;11.35;;;9.20;;
7017;SDS011;3549;42.162;24.726;2022-07-29T06:48:38;13.45;;;9.15;;
7017;SDS011;3549;42.162;24.726;2022-07-29T06:51:05;11.00;;;8.95;;
7017;SDS011;3549;42.162;24.726;2022-07-29T06:53:31;10.98;;;9.27;;
7017;SDS011;3549;42.162;24.726;2022-07-29T06:55:58;11.32;;;9.48;;
7017;SDS011;3549;42.162;24.726;2022-07-29T06:58:25;12.60;;;9.93;;
7017;SDS011;3549;42.162;24.726;2022-07-29T07:00:52;12.45;;;8.93;;
7017;SDS011;3549;42.162;24.726;2022-07-29T07:03:17;11.48;;;9.18;;
7017;SDS011;3549;42.162;24.726;2022-07-29T07:05:44;13.40;;;9.52;;
7017;SDS011;3549;42.162;24.726;2022-07-29T07:08:11;11.98;;;10.45;;
7017;SDS011;3549;42.162;24.726;2022-07-29T07:10:38;12.73;;;10.38;;
7017;SDS011;3549;42.162;24.726;2022-07-29T07:13:03;11.30;;;9.40;;
7017;SDS011;3549;42.162;24.726;2022-07-29T07:15:29;11.48;;;9.55;;
7017;SDS011;3549;42.162;24.726;2022-07-29T07:17:55;12.48;;;9.70;;
7017;SDS011;3549;42.162;24.726;2022-07-29T07:20:21;13.80;;;10.20;;
7017;SDS011;3549;42.162;24.726;2022-07-29T07:22:46;11.38;;;9.98;;
7017;SDS011;3549;42.162;24.726;2022-07-29T07:25:12;11.27;;;9.80;;
7017;SDS011;3549;42.162;24.726;2022-07-29T07:27:38;11.40;;;9.05;;
7017;SDS011;3549;42.162;24.726;2022-07-29T07:30:04;10.77;;;9.38;;
7017;SDS011;3549;42.162;24.726;2022-07-29T07:32:31;11.07;;;9.75;;
7017;SDS011;3549;42.162;24.726;2022-07-29T07:34:57;12.38;;;9.65;;
7017;SDS011;3549;42.162;24.726;2022-07-29T07:37:24;10.80;;;9.35;;
7017;SDS011;3549;42.162;24.726;2022-07-29T07:39:50;13.20;;;9.07;;
7017;SDS011;3549;42.162;24.726;2022-07-29T07:42:21;13.38;;;10.18;;
7017;SDS011;3549;42.162;24.726;2022-07-29T07:44:47;10.90;;;9.80;;
7017;SDS011;3549;42.162;24.726;2022-07-29T07:47:13;13.52;;;10.20;;
7017;SDS011;3549;42.162;24.726;2022-07-29T07:49:39;13.10;;;9.85;;
7017;SDS011;3549;42.162;24.726;2022-07-29T07:52:05;11.32;;;9.50;;
7017;SDS011;3549;42.162;24.726;2022-07-29T07:54:30;14.90;;;11.45;;
7017;SDS011;3549;42.162;24.726;2022-07-29T07:56:56;12.13;;;9.43;;
7017;SDS011;3549;42.162;24.726;2022-07-29T07:59:22;11.88;;;9.10;;
7017;SDS011;3549;42.162;24.726;2022-07-29T08:01:47;11.48;;;8.32;;
7017;SDS011;3549;42.162;24.726;2022-07-29T08:04:13;10.10;;;7.90;;
7017;SDS011;3549;42.162;24.726;2022-07-29T08:06:38;9.35;;;7.68;;
7017;SDS011;3549;42.162;24.726;2022-07-29T08:09:04;9.35;;;8.27;;
7017;SDS011;3549;42.162;24.726;2022-07-29T08:11:30;10.73;;;7.97;;
7017;SDS011;3549;42.162;24.726;2022-07-29T08:13:56;10.68;;;7.90;;
7017;SDS011;3549;42.162;24.726;2022-07-29T08:16:22;11.20;;;8.57;;
7017;SDS011;3549;42.162;24.726;2022-07-29T08:18:47;11.18;;;7.70;;
7017;SDS011;3549;42.162;24.726;2022-07-29T08:21:13;10.70;;;7.18;;
7017;SDS011;3549;42.162;24.726;2022-07-29T08:23:40;9.10;;;7.32;;
7017;SDS011;3549;42.162;24.726;2022-07-29T08:26:17;12.13;;;7.40;;
7017;SDS011;3549;42.162;24.726;2022-07-29T08:28:44;9.35;;;7.10;;
7017;SDS011;3549;42.162;24.726;2022-07-29T08:31:11;8.90;;;6.95;;
7017;SDS011;3549;42.162;24.726;2022-07-29T08:33:38;10.32;;;6.10;;
7017;SDS011;3549;42.162;24.726;2022-07-29T08:36:04;7.50;;;6.30;;
7017;SDS011;3549;42.162;24.726;2022-07-29T08:38:30;9.00;;;6.15;;
7017;SDS011;3549;42.162;24.726;2022-07-29T08:40:55;10.55;;;6.95;;
7017;SDS011;3549;42.162;24.726;2022-07-29T08:43:21;8.98;;;6.68;;
7017;SDS011;3549;42.162;24.726;2022-07-29T08:45:48;8.18;;;5.95;;
7017;SDS011;3549;42.162;24.726;2022-07-29T08:48:19;8.25;;;5.78;;
7017;SDS011;3549;42.162;24.726;2022-07-29T08:50:46;6.47;;;5.88;;
7017;SDS011;3549;42.162;24.726;2022-07-29T08:53:15;8.23;;;5.60;;
7017;SDS011;3549;42.162;24.726;2022-07-29T08:55:45;7.88;;;5.50;;
7017;SDS011;3549;42.162;24.726;2022-07-29T08:58:14;6.80;;;5.55;;
7017;SDS011;3549;42.162;24.726;2022-07-29T09:00:41;5.70;;;5.10;;
7017;SDS011;3549;42.162;24.726;2022-07-29T09:03:08;7.47;;;5.88;;
7017;SDS011;3549;42.162;24.726;2022-07-29T09:05:37;8.02;;;5.55;;
7017;SDS011;3549;42.162;24.726;2022-07-29T09:08:06;6.25;;;5.45;;
7017;SDS011;3549;42.162;24.726;2022-07-29T09:10:31;9.82;;;5.80;;
7017;SDS011;3549;42.162;24.726;2022-07-29T09:12:57;6.47;;;5.30;;
7017;SDS011;3549;42.162;24.726;2022-07-29T09:15:23;7.38;;;5.22;;
7017;SDS011;3549;42.162;24.726;2022-07-29T09:17:49;6.95;;;5.38;;
7017;SDS011;3549;42.162;24.726;2022-07-29T09:20:15;7.57;;;5.70;;
7017;SDS011;3549;42.162;24.726;2022-07-29T09:22:42;7.28;;;6.05;;
7017;SDS011;3549;42.162;24.726;2022-07-29T09:25:08;6.18;;;5.47;;
7017;SDS011;3549;42.162;24.726;2022-07-29T09:27:36;7.93;;;5.55;;
7017;SDS011;3549;42.162;24.726;2022-07-29T09:32:32;6.68;;;5.10;;
7017;SDS011;3549;42.162;24.726;2022-07-29T09:35:17;6.75;;;5.28;;
7017;SDS011;3549;42.162;24.726;2022-07-29T09:37:45;6.68;;;5.65;;
7017;SDS011;3549;42.162;24.726;2022-07-29T09:40:32;7.15;;;5.28;;
7017;SDS011;3549;42.162;24.726;2022-07-29T09:42:56;6.15;;;5.53;;
7017;SDS011;3549;42.162;24.726;2022-07-29T09:45:32;7.50;;;5.93;;
7017;SDS011;3549;42.162;24.726;2022-07-29T09:47:59;5.80;;;5.28;;
7017;SDS011;3549;42.162;24.726;2022-07-29T09:50:40;7.65;;;5.32;;
7017;SDS011;3549;42.162;24.726;2022-07-29T09:53:07;5.78;;;5.28;;
7017;SDS011;3549;42.162;24.726;2022-07-29T09:55:51;6.10;;;5.50;;
7017;SDS011;3549;42.162;24.726;2022-07-29T09:58:18;7.55;;;5.57;;
7017;SDS011;3549;42.162;24.726;2022-07-29T10:00:45;7.68;;;5.80;;
7017;SDS011;3549;42.162;24.726;2022-07-29T10:03:13;17.45;;;6.10;;
7017;SDS011;3549;42.162;24.726;2022-07-29T10:05:40;7.82;;;5.22;;
7017;SDS011;3549;42.162;24.726;2022-07-29T10:08:07;5.88;;;5.10;;
7017;SDS011;3549;42.162;24.726;2022-07-29T10:10:35;5.88;;;5.38;;
7017;SDS011;3549;42.162;24.726;2022-07-29T10:13:03;5.25;;;4.75;;
7017;SDS011;3549;42.162;24.726;2022-07-29T10:15:32;5.78;;;5.18;;
7017;SDS011;3549;42.162;24.726;2022-07-29T10:18:04;7.22;;;5.30;;
7017;SDS011;3549;42.162;24.726;2022-07-29T10:20:31;6.90;;;5.70;;
7017;SDS011;3549;42.162;24.726;2022-07-29T10:22:56;5.95;;;5.40;;
7017;SDS011;3549;42.162;24.726;2022-07-29T10:25:22;6.53;;;5.40;;
7017;SDS011;3549;42.162;24.726;2022-07-29T10:27:48;5.90;;;5.40;;
7017;SDS011;3549;42.162;24.726;2022-07-29T10:30:16;5.55;;;5.05;;
7017;SDS011;3549;42.162;24.726;2022-07-29T10:43:55;6.05;;;5.32;;
7017;SDS011;3549;42.162;24.726;2022-07-29T10:46:24;6.68;;;5.32;;
7017;SDS011;3549;42.162;24.726;2022-07-29T10:57:21;5.43;;;4.93;;
7017;SDS011;3549;42.162;24.726;2022-07-29T11:05:19;6.47;;;5.55;;
7017;SDS011;3549;42.162;24.726;2022-07-29T11:10:39;7.93;;;5.40;;
7017;SDS011;3549;42.162;24.726;2022-07-29T11:13:05;6.03;;;5.40;;
7017;SDS011;3549;42.162;24.726;2022-07-29T11:15:51;6.68;;;5.60;;
7017;SDS011;3549;42.162;24.726;2022-07-29T11:18:20;9.27;;;5.70;;
7017;SDS011;3549;42.162;24.726;2022-07-29T11:20:46;6.28;;;5.68;;
7017;SDS011;3549;42.162;24.726;2022-07-29T11:25:42;7.38;;;5.80;;
7017;SDS011;3549;42.162;24.726;2022-07-29T11:28:10;6.03;;;5.43;;
7017;SDS011;3549;42.162;24.726;2022-07-29T11:30:47;9.80;;;5.63;;
7017;SDS011;3549;42.162;24.726;2022-07-29T11:33:29;9.10;;;5.55;;
7017;SDS011;3549;42.162;24.726;2022-07-29T11:38:35;7.15;;;5.20;;
7017;SDS011;3549;42.162;24.726;2022-07-29T11:49:08;5.32;;;4.70;;
7017;SDS011;3549;42.162;24.726;2022-07-29T11:51:35;5.78;;;4.82;;
7017;SDS011;3549;42.162;24.726;2022-07-29T11:54:04;7.63;;;5.10;;
7017;SDS011;3549;42.162;24.726;2022-07-29T11:56:33;8.60;;;5.07;;
7017;SDS011;3549;42.162;24.726;2022-07-29T11:59:06;5.50;;;4.90;;
7017;SDS011;3549;42.162;24.726;2022-07-29T12:01:34;6.05;;;4.95;;
7017;SDS011;3549;42.162;24.726;2022-07-29T12:04:06;5.32;;;4.82;;
7017;SDS011;3549;42.162;24.726;2022-07-29T12:06:34;7.38;;;4.75;;
7017;SDS011;3549;42.162;24.726;2022-07-29T12:09:00;6.43;;;4.78;;
7017;SDS011;3549;42.162;24.726;2022-07-29T12:11:31;5.35;;;4.60;;
7017;SDS011;3549;42.162;24.726;2022-07-29T12:13:56;4.65;;;4.10;;
7017;SDS011;3549;42.162;24.726;2022-07-29T12:16:22;4.80;;;4.40;;
7017;SDS011;3549;42.162;24.726;2022-07-29T12:21:25;5.53;;;4.55;;
7017;SDS011;3549;42.162;24.726;2022-07-29T12:23:55;5.05;;;4.47;;
7017;SDS011;3549;42.162;24.726;2022-07-29T12:26:21;5.18;;;4.43;;
7017;SDS011;3549;42.162;24.726;2022-07-29T12:28:46;6.90;;;4.13;;
7017;SDS011;3549;42.162;24.726;2022-07-29T12:31:15;4.63;;;4.20;;
7017;SDS011;3549;42.162;24.726;2022-07-29T12:33:41;4.65;;;4.18;;
7017;SDS011;3549;42.162;24.726;2022-07-29T12:36:07;4.40;;;4.00;;
7017;SDS011;3549;42.162;24.726;2022-07-29T12:38:33;4.80;;;3.97;;
7017;SDS011;3549;42.162;24.726;2022-07-29T12:41:00;5.38;;;4.13;;
7017;SDS011;3549;42.162;24.726;2022-07-29T12:43:25;4.95;;;4.50;;
7017;SDS011;3549;42.162;24.726;2022-07-29T12:45:53;5.35;;;4.40;;
7017;SDS011;3549;42.162;24.726;2022-07-29T12:48:33;6.40;;;4.38;;
7017;SDS011;3549;42.162;24.726;2022-07-29T12:51:00;6.70;;;4.35;;
7017;SDS011;3549;42.162;24.726;2022-07-29T12:53:27;4.80;;;4.30;;
7017;SDS011;3549;42.162;24.726;2022-07-29T12:55:54;4.63;;;4.22;;
7017;SDS011;3549;42.162;24.726;2022-07-29T12:58:35;5.70;;;5.10;;
7017;SDS011;3549;42.162;24.726;2022-07-29T13:01:03;5.10;;;4.70;;
7017;SDS011;3549;42.162;24.726;2022-07-29T13:03:45;6.28;;;4.50;;
7017;SDS011;3549;42.162;24.726;2022-07-29T13:06:42;6.85;;;4.53;;
7017;SDS011;3549;42.162;24.726;2022-07-29T13:09:13;6.10;;;4.50;;
7017;SDS011;3549;42.162;24.726;2022-07-29T13:11:39;7.80;;;4.70;;
7017;SDS011;3549;42.162;24.726;2022-07-29T13:14:33;5.32;;;4.82;;
7017;SDS011;3549;42.162;24.726;2022-07-29T13:16:59;6.45;;;5.18;;
7017;SDS011;3549;42.162;24.726;2022-07-29T13:22:01;5.88;;;5.00;;
7017;SDS011;3549;42.162;24.726;2022-07-29T13:24:27;6.15;;;5.45;;
7017;SDS011;3549;42.162;24.726;2022-07-29T13:26:53;6.63;;;5.28;;
7017;SDS011;3549;42.162;24.726;2022-07-29T13:29:18;6.00;;;5.40;;
7017;SDS011;3549;42.162;24.726;2022-07-29T13:31:43;7.82;;;5.57;;
7017;SDS011;3549;42.162;24.726;2022-07-29T13:34:09;6.00;;;5.40;;
7017;SDS011;3549;42.162;24.726;2022-07-29T13:36:34;6.13;;;5.53;;
7017;SDS011;3549;42.162;24.726;2022-07-29T13:39:00;6.03;;;5.53;;
7017;SDS011;3549;42.162;24.726;2022-07-29T13:41:27;5.90;;;5.38;;
7017;SDS011;3549;42.162;24.726;2022-07-29T13:43:53;5.40;;;4.90;;
7017;SDS011;3549;42.162;24.726;2022-07-29T13:46:18;8.55;;;5.65;;
7017;SDS011;3549;42.162;24.726;2022-07-29T13:48:44;6.00;;;5.40;;
7017;SDS011;3549;42.162;24.726;2022-07-29T13:51:09;7.38;;;5.38;;
7017;SDS011;3549;42.162;24.726;2022-07-29T13:53:34;6.43;;;5.25;;
7017;SDS011;3549;42.162;24.726;2022-07-29T13:56:00;6.50;;;5.18;;
7017;SDS011;3549;42.162;24.726;2022-07-29T13:58:25;5.88;;;5.13;;
7017;SDS011;3549;42.162;24.726;2022-07-29T14:00:51;5.60;;;5.10;;
7017;SDS011;3549;42.162;24.726;2022-07-29T14:03:16;5.80;;;5.22;;
7017;SDS011;3549;42.162;24.726;2022-07-29T14:05:42;6.15;;;4.85;;
7017;SDS011;3549;42.162;24.726;2022-07-29T14:08:07;7.65;;;5.18;;
7017;SDS011;3549;42.162;24.726;2022-07-29T14:10:33;5.75;;;5.13;;
7017;SDS011;3549;42.162;24.726;2022-07-29T14:12:58;7.20;;;5.32;;
7017;SDS011;3549;42.162;24.726;2022-07-29T14:15:24;8.10;;;4.93;;
7017;SDS011;3549;42.162;24.726;2022-07-29T14:17:49;5.50;;;5.00;;
7017;SDS011;3549;42.162;24.726;2022-07-29T14:20:15;5.78;;;5.05;;
7017;SDS011;3549;42.162;24.726;2022-07-29T14:22:41;6.55;;;4.90;;
7017;SDS011;3549;42.162;24.726;2022-07-29T14:25:07;5.75;;;4.93;;
7017;SDS011;3549;42.162;24.726;2022-07-29T14:27:33;4.80;;;4.40;;
7017;SDS011;3549;42.162;24.726;2022-07-29T14:29:58;5.45;;;4.65;;
7017;SDS011;3549;42.162;24.726;2022-07-29T14:32:23;5.47;;;4.68;;
7017;SDS011;3549;42.162;24.726;2022-07-29T14:34:49;7.07;;;4.60;;
7017;SDS011;3549;42.162;24.726;2022-07-29T14:37:14;6.50;;;4.80;;
7017;SDS011;3549;42.162;24.726;2022-07-29T14:39:40;5.20;;;4.70;;
7017;SDS011;3549;42.162;24.726;2022-07-29T14:42:06;6.88;;;4.60;;
7017;SDS011;3549;42.162;24.726;2022-07-29T14:44:32;5.05;;;4.55;;
7017;SDS011;3549;42.162;24.726;2022-07-29T14:46:58;5.25;;;4.50;;
7017;SDS011;3549;42.162;24.726;2022-07-29T14:49:25;6.35;;;5.10;;
7017;SDS011;3549;42.162;24.726;2022-07-29T14:51:51;5.85;;;4.82;;
7017;SDS011;3549;42.162;24.726;2022-07-29T14:54:16;5.20;;;4.75;;
7017;SDS011;3549;42.162;24.726;2022-07-29T14:56:42;5.30;;;4.80;;
7017;SDS011;3549;42.162;24.726;2022-07-29T14:59:07;8.60;;;4.80;;
7017;SDS011;3549;42.162;24.726;2022-07-29T15:01:33;7.63;;;5.10;;
7017;SDS011;3549;42.162;24.726;2022-07-29T15:03:58;7.50;;;5.10;;
7017;SDS011;3549;42.162;24.726;2022-07-29T15:06:24;6.75;;;4.68;;
7017;SDS011;3549;42.162;24.726;2022-07-29T15:08:50;7.40;;;4.60;;
7017;SDS011;3549;42.162;24.726;2022-07-29T15:11:15;5.53;;;4.47;;
7017;SDS011;3549;42.162;24.726;2022-07-29T15:13:41;6.38;;;5.25;;
7017;SDS011;3549;42.162;24.726;2022-07-29T15:16:06;5.18;;;4.70;;
7017;SDS011;3549;42.162;24.726;2022-07-29T15:18:31;6.40;;;5.28;;
7017;SDS011;3549;42.162;24.726;2022-07-29T15:20:57;7.63;;;5.25;;
7017;SDS011;3549;42.162;24.726;2022-07-29T15:23:22;7.57;;;5.47;;
7017;SDS011;3549;42.162;24.726;2022-07-29T15:25:48;6.15;;;5.20;;
7017;SDS011;3549;42.162;24.726;2022-07-29T15:28:13;5.70;;;4.75;;
7017;SDS011;3549;42.162;24.726;2022-07-29T15:30:39;6.15;;;4.85;;
7017;SDS011;3549;42.162;24.726;2022-07-29T15:33:08;7.80;;;5.28;;
7017;SDS011;3549;42.162;24.726;2022-07-29T15:35:37;7.20;;;5.15;;
7017;SDS011;3549;42.162;24.726;2022-07-29T15:38:02;6.03;;;5.20;;
7017;SDS011;3549;42.162;24.726;2022-07-29T15:40:28;12.23;;;5.50;;
7017;SDS011;3549;42.162;24.726;2022-07-29T15:42:54;8.32;;;4.97;;
7017;SDS011;3549;42.162;24.726;2022-07-29T15:45:19;7.32;;;4.85;;
7017;SDS011;3549;42.162;24.726;2022-07-29T15:47:45;7.18;;;5.30;;
7017;SDS011;3549;42.162;24.726;2022-07-29T15:50:10;8.15;;;5.65;;
7017;SDS011;3549;42.162;24.726;2022-07-29T15:52:40;7.03;;;5.68;;
7017;SDS011;3549;42.162;24.726;2022-07-29T15:55:06;5.40;;;4.90;;
7017;SDS011;3549;42.162;24.726;2022-07-29T15:57:32;8.68;;;5.35;;
7017;SDS011;3549;42.162;24.726;2022-07-29T15:59:58;6.53;;;5.25;;
7017;SDS011;3549;42.162;24.726;2022-07-29T16:02:23;6.03;;;5.43;;
7017;SDS011;3549;42.162;24.726;2022-07-29T16:04:49;9.45;;;6.30;;
7017;SDS011;3549;42.162;24.726;2022-07-29T16:07:14;7.68;;;6.68;;
7017;SDS011;3549;42.162;24.726;2022-07-29T16:09:40;9.55;;;6.18;;
7017;SDS011;3549;42.162;24.726;2022-07-29T16:12:06;6.45;;;5.70;;
7017;SDS011;3549;42.162;24.726;2022-07-29T16:14:32;8.93;;;5.78;;
7017;SDS011;3549;42.162;24.726;2022-07-29T16:16:58;8.70;;;5.90;;
7017;SDS011;3549;42.162;24.726;2022-07-29T16:19:27;6.53;;;5.90;;
7017;SDS011;3549;42.162;24.726;2022-07-29T16:21:52;9.88;;;5.95;;
7017;SDS011;3549;42.162;24.726;2022-07-29T16:24:18;7.05;;;5.68;;
7017;SDS011;3549;42.162;24.726;2022-07-29T16:26:43;6.85;;;5.72;;
7017;SDS011;3549;42.162;24.726;2022-07-29T16:29:08;6.80;;;5.70;;
7017;SDS011;3549;42.162;24.726;2022-07-29T16:31:34;8.27;;;6.40;;
7017;SDS011;3549;42.162;24.726;2022-07-29T16:33:59;8.35;;;6.03;;
7017;SDS011;3549;42.162;24.726;2022-07-29T16:36:25;6.93;;;6.18;;
7017;SDS011;3549;42.162;24.726;2022-07-29T16:38:54;9.30;;;6.18;;
7017;SDS011;3549;42.162;24.726;2022-07-29T16:41:19;9.85;;;7.00;;